Wylie's Hourly Summary for Thursday, March 16, 2017
Hour Temp
(f)
RH
(%)
Solar Rad.
(MJ/m2)
Rainfall
(in)
Wind
(mph)
3/16/2017 12:00 AM 52 63 0 0 5.02
3/16/2017 1:00 AM 52 63 0 0 6.23
3/16/2017 2:00 AM 50 66 0 0 5.22
3/16/2017 3:00 AM 50 69 0 0 6.93
3/16/2017 4:00 AM 51 71 0 0 8.88
3/16/2017 5:00 AM 51 77 0 0 8.91
3/16/2017 6:00 AM 53 82 0 0 9.32
3/16/2017 7:00 AM 54 85 0 0 7.85
3/16/2017 8:00 AM 54 87 0.01 0 6.55
3/16/2017 9:00 AM 54 90 0.07 0 6.98
3/16/2017 10:00 AM 55 88 0.24 0 7.6
3/16/2017 11:00 AM 56 84 0.43 0 7.21
3/16/2017 12:00 PM 57 81 0.55 0 8.28
3/16/2017 1:00 PM 59 76 0.76 0 8.47
3/16/2017 2:00 PM 61 74 1 0 8.96
3/16/2017 3:00 PM 63 71 0.86 0 9.05
3/16/2017 4:00 PM 66 70 0.8 0 10.34
3/16/2017 5:00 PM 66 69 0.62 0 8.5
3/16/2017 6:00 PM 70 64 0.92 0 9.99
3/16/2017 7:00 PM 70 65 0.36 0 10.07
3/16/2017 8:00 PM 69 66 0.04 0 8.02
3/16/2017 9:00 PM 67 68 0 0 8.06
3/16/2017 10:00 PM 65 73 0 0 8.2
3/16/2017 11:00 PM 64 78 0 0 8.17
Data Summary 58 74 6.66 0.00 8.03